PDT,Max TemperatureF,Mean TemperatureF,Min TemperatureF,Max Dew PointF,MeanDew PointF,Min DewpointF,Max Humidity, Mean Humidity, Min Humidity, Max Sea Level PressureIn, Mean Sea Level PressureIn, Min Sea Level PressureIn, Max VisibilityMiles, Mean VisibilityMiles, Min VisibilityMiles, Max Wind SpeedMPH, Mean Wind SpeedMPH, Max Gust SpeedMPH,PrecipitationIn, CloudCover, Events, WindDirDegrees
2013-10-1,59,47,34,38,35,31,89,66,43,30.11,29.97,29.85,10,10,10,20,5,31,T,1,Rain,243
2013-10-2,48,42,35,42,38,31,92,82,71,30.17,30.14,30.11,10,10,10,10,4,14,0.03,6,Rain,338
2013-10-3,64,51,38,40,35,28,92,60,27,30.44,30.30,30.17,10,10,10,20,10,25,0.00,0,,339
2013-10-4,63,46,28,37,33,28,92,63,34,30.56,30.46,30.39,10,10,10,13,5,16,0.00,0,,192
2013-10-5,64,52,40,40,37,35,82,61,39,30.42,30.35,30.27,10,10,10,12,4,15,0.00,0,,226
2013-10-6,68,50,32,40,37,32,96,65,34,30.27,30.09,29.88,10,10,10,12,5,15,0.00,0,,237
2013-10-7,68,52,35,40,35,29,92,60,27,29.87,29.82,29.76,10,10,10,18,6,24,T,1,,162
2013-10-8,60,49,37,40,33,29,79,58,36,30.07,29.91,29.82,10,10,10,23,8,29,0.02,2,Rain,344
2013-10-9,61,49,37,34,31,29,76,54,32,30.15,30.02,29.85,10,10,10,14,8,17,0.00,1,,293
2013-10-10,64,50,36,36,33,29,79,55,30,30.04,29.90,29.83,10,10,10,21,8,26,0.00,3,,326
2013-10-11,58,46,33,32,29,27,75,53,30,30.17,30.10,30.05,10,10,10,12,6,17,0.00,1,,349
2013-10-12,59,51,43,37,35,32,65,53,40,30.21,30.11,30.05,10,10,10,15,9,18,T,6,,344
2013-10-13,61,48,35,34,30,27,75,51,27,30.36,30.28,30.21,10,10,10,17,9,22,0.00,1,,331
2013-10-14,63,50,36,34,30,28,70,49,27,30.46,30.41,30.37,10,10,10,21,10,25,0.00,0,,338
2013-10-15,60,43,26,38,32,25,92,65,37,30.45,30.34,30.21,10,10,10,9,4,13,T,1,Rain,230
2013-10-16,65,51,37,40,35,33,85,58,31,30.23,30.19,30.15,10,10,10,23,11,28,0.00,1,,344
2013-10-17,66,50,33,36,33,30,82,56,30,30.32,30.27,30.22,10,10,10,18,7,24,0.00,0,,338
2013-10-18,62,48,33,38,34,29,82,61,39,30.34,30.27,30.19,10,10,10,10,5,13,0.00,0,,351
2013-10-19,62,47,31,39,35,29,92,66,39,30.22,30.17,30.11,10,10,10,10,4,13,0.00,0,,346
2013-10-20,69,52,34,42,39,32,92,66,39,30.21,30.16,30.09,10,10,10,16,6,21,0.00,0,,358
2013-10-21,68,55,41,43,41,38,89,64,39,30.25,30.19,30.13,10,10,10,12,5,15,0.00,0,,351
2013-10-22,67,49,31,43,40,32,100,71,42,30.26,30.19,30.12,10,10,9,12,5,14,0.00,0,,2
2013-10-23,64,53,42,43,42,41,96,70,44,30.22,30.16,30.12,10,6,1,18,8,20,0.00,3,,4
2013-10-24,58,49,40,42,40,36,100,78,55,30.20,30.15,30.09,10,9,4,14,6,17,0.00,4,,3
2013-10-25,58,49,40,41,40,37,100,78,55,30.32,30.26,30.18,10,8,2,14,8,18,0.00,4,,5
2013-10-26,57,46,35,41,39,33,93,74,55,30.37,30.27,30.08,10,10,8,17,7,22,0.00,3,,359
2013-10-27,54,47,39,42,39,34,93,74,54,30.05,29.94,29.86,10,10,6,26,13,33,0.02,5,Rain,352
2013-10-28,55,48,40,33,25,21,62,44,26,30.09,30.03,29.97,10,10,10,23,13,33,0.00,0,,350
2013-10-29,53,40,27,25,24,22,72,51,29,30.05,30.02,29.97,10,10,10,15,7,18,0.00,0,,315
2013-10-30,49,35,20,26,23,18,88,64,39,30.12,30.08,30.04,10,10,10,8,2,9,0.00,1,,269
2013-10-31,58,43,28,30,28,22,81,60,38,30.19,30.09,30.06,10,10,9,8,2,10,0.00,3,,315